Atar, Mauritania
Current Conditions -  °F | °C
As of 7:30 PM on Saturday 20 Dec 2014 (Local Time) from GQPA Reporting Station
Clear Clear  
Wind Chill: 73°   Ceiling: Unl
Heat Index: 73°   Visibility: 4mi
Dew Point: 36°   Wind: 0mph
Humidity: 25%   Direction: NA
Pressure: 30.15"   Gusts: NA
Location:  20.51°N, 13.05°W
Report Text: GQPA 201930Z 00000KT 7000 NSC 23/02 Q1021
Loading
Personal Weather Stations






























Interactive Weather Map New forecast layout! Learn more

10-Day Weather Forecast

Advertisements
Track Severe Weather on mobile